createdAt,value
2017-04-21T00:00:49.466Z,4.61
2017-04-21T00:01:59.407Z,4.71
2017-04-21T00:03:09.661Z,4.78
2017-04-21T00:04:19.911Z,4.75
2017-04-21T00:05:30.168Z,4.74
2017-04-21T00:06:40.428Z,4.74
2017-04-21T00:07:50.686Z,4.76
2017-04-21T00:09:00.942Z,4.78
2017-04-21T00:10:11.217Z,4.82
2017-04-21T00:11:21.178Z,4.76
2017-04-21T00:12:31.134Z,4.75
2017-04-21T00:13:41.457Z,4.78
2017-04-21T00:14:51.716Z,4.7
2017-04-21T00:16:01.975Z,4.61
2017-04-21T00:17:11.918Z,4.58
2017-04-21T00:18:22.170Z,4.63
2017-04-21T00:19:32.435Z,4.52
2017-04-21T00:20:42.694Z,4.52
2017-04-21T00:21:52.946Z,4.43
2017-04-21T00:23:03.200Z,4.43
2017-04-21T00:24:13.458Z,4.56
2017-04-21T00:25:23.788Z,4.45
2017-04-21T00:26:33.430Z,4.4
2017-04-21T00:27:43.691Z,4.43
2017-04-21T00:28:53.943Z,4.31
2017-04-21T00:30:06.202Z,4.25
2017-04-21T00:31:16.147Z,4.3
2017-04-21T00:32:26.086Z,4.36
2017-04-21T00:33:36.340Z,4.32
2017-04-21T00:34:46.594Z,4.25
2017-04-21T00:35:56.844Z,4.28
2017-04-21T00:37:07.103Z,4.18
2017-04-21T00:38:17.046Z,4.14
2017-04-21T00:39:27.300Z,4.09
2017-04-21T00:40:37.242Z,4.07
2017-04-21T00:41:47.488Z,4.06
2017-04-21T00:42:57.747Z,4.06
2017-04-21T00:44:07.685Z,3.99
2017-04-21T00:45:17.945Z,4.03
2017-04-21T00:46:28.198Z,4.14
2017-04-21T00:47:38.503Z,4.07
2017-04-21T00:48:48.762Z,4.09
2017-04-21T00:49:59.008Z,4.14
2017-04-21T00:51:09.259Z,4.09
2017-04-21T00:52:19.514Z,4.06
2017-04-21T00:53:29.134Z,4.14
2017-04-21T00:54:39.386Z,4.06
2017-04-21T00:55:49.644Z,4.07
2017-04-21T00:56:59.897Z,4.1
2017-04-21T00:58:09.833Z,4.1
2017-04-21T00:59:20.089Z,4.09
2017-04-21T01:00:30.346Z,4.1
2017-04-21T01:01:39.978Z,4.09
2017-04-21T01:02:50.235Z,4.14
2017-04-21T01:04:00.572Z,4.25
2017-04-21T01:05:10.888Z,4.24
2017-04-21T01:06:21.367Z,4.18
2017-04-21T01:07:31.724Z,4.25
2017-04-21T01:08:41.982Z,4.09
2017-04-21T01:09:52.239Z,4.18
2017-04-21T01:11:02.514Z,4.16
2017-04-21T01:12:12.472Z,4.14
2017-04-21T01:13:22.729Z,4.1
2017-04-21T01:14:32.990Z,4.12
2017-04-21T01:15:43.245Z,4.16
2017-04-21T01:16:53.185Z,4.14
2017-04-21T01:18:03.454Z,4.18
2017-04-21T01:19:13.706Z,4.1
2017-04-21T01:20:23.964Z,4.13
2017-04-21T01:21:34.215Z,4.1
2017-04-21T01:22:44.468Z,4.12
2017-04-21T01:23:54.717Z,4.14
2017-04-21T01:25:04.661Z,4.2
2017-04-21T01:26:14.642Z,4.14
2017-04-21T01:27:24.895Z,4.12
2017-04-21T01:28:34.831Z,4.13
2017-04-21T01:29:45.095Z,4.13
2017-04-21T01:30:55.033Z,4.1
2017-04-21T01:32:05.288Z,4.14
2017-04-21T01:33:14.931Z,4.04
2017-04-21T01:34:25.193Z,4.1
2017-04-21T01:35:35.135Z,4.16
2017-04-21T01:36:44.473Z,4.13
2017-04-21T01:37:54.722Z,4.28
2017-04-21T01:39:04.972Z,4.14
2017-04-21T01:40:15.228Z,4.22
2017-04-21T01:41:25.485Z,4.24
2017-04-21T01:42:35.738Z,4.25
2017-04-21T01:43:46.141Z,4.22
2017-04-21T01:44:56.396Z,4.22
2017-04-21T01:46:06.336Z,4.22
2017-04-21T01:47:16.637Z,4.13
2017-04-21T01:48:26.897Z,4.27
2017-04-21T01:49:37.158Z,4.18
2017-04-21T01:50:47.417Z,4.13
2017-04-21T01:51:57.677Z,4.16
2017-04-21T01:53:07.931Z,4.13
2017-04-21T01:54:17.875Z,4.13
2017-04-21T01:55:28.163Z,4.18
2017-04-21T01:56:38.412Z,4.24
2017-04-21T01:57:48.664Z,4.21
2017-04-21T01:58:58.918Z,4.25
2017-04-21T02:00:09.182Z,4.27
2017-04-21T02:01:19.440Z,4.2
2017-04-21T02:02:29.696Z,4.25
2017-04-21T02:03:39.970Z,4.25
2017-04-21T02:04:49.918Z,4.25
2017-04-21T02:06:00.178Z,4.28
2017-04-21T02:07:10.433Z,4.42
2017-04-21T02:08:20.687Z,4.32
2017-04-21T02:09:30.946Z,4.43
2017-04-21T02:10:41.196Z,4.4
2017-04-21T02:11:51.130Z,4.38
2017-04-21T02:13:01.384Z,4.42
2017-04-21T02:14:11.321Z,4.39
2017-04-21T02:15:21.273Z,4.46
2017-04-21T02:16:31.230Z,4.36
2017-04-21T02:17:41.477Z,4.42
2017-04-21T02:18:51.421Z,4.5
2017-04-21T02:20:01.726Z,4.63
2017-04-21T02:21:11.800Z,4.48
2017-04-21T02:22:22.055Z,4.46
2017-04-21T02:23:32.350Z,4.5
2017-04-21T02:24:42.603Z,4.64
2017-04-21T02:25:52.545Z,4.56
2017-04-21T02:27:02.806Z,4.74
2017-04-21T02:28:12.745Z,4.76
2017-04-21T02:29:22.376Z,4.78
2017-04-21T02:30:32.623Z,4.79
2017-04-21T02:31:42.564Z,4.83
2017-04-21T02:32:52.876Z,4.86
2017-04-21T02:34:03.137Z,4.94
2017-04-21T02:35:13.391Z,4.95
2017-04-21T02:36:23.639Z,4.97
2017-04-21T02:37:33.576Z,5.01
2017-04-21T02:38:43.831Z,4.98
2017-04-21T02:39:53.469Z,5.02
2017-04-21T02:41:03.732Z,5.08
2017-04-21T02:42:13.985Z,5.1
2017-04-21T02:43:23.927Z,5.13
2017-04-21T02:44:34.192Z,5.08
2017-04-21T02:45:44.441Z,5.2
2017-04-21T02:46:54.688Z,5.19
2017-04-21T02:48:04.951Z,5.16
2017-04-21T02:49:15.213Z,5.25
2017-04-21T02:50:25.727Z,5.26
2017-04-21T02:51:35.975Z,5.2
2017-04-21T02:52:46.245Z,5.22
2017-04-21T02:53:56.502Z,5.19
2017-04-21T02:55:06.440Z,5.15
2017-04-21T02:56:16.703Z,5.15
2017-04-21T02:57:26.959Z,5.18
2017-04-21T02:58:37.318Z,5.16
2017-04-21T02:59:47.743Z,5.13
2017-04-21T03:00:58.014Z,5.05
2017-04-21T03:02:08.304Z,4.95
2017-04-21T03:03:18.254Z,4.89
2017-04-21T03:04:28.520Z,4.78
2017-04-21T03:05:38.773Z,4.79
2017-04-21T03:06:49.027Z,4.64
2017-04-21T03:07:59.277Z,4.58
2017-04-21T03:09:09.531Z,4.5
2017-04-21T03:10:19.780Z,4.4
2017-04-21T03:11:30.033Z,4.42
2017-04-21T03:12:40.292Z,4.43
2017-04-21T03:13:50.602Z,4.56
2017-04-21T03:15:00.554Z,4.45
2017-04-21T03:16:09.869Z,4.45
2017-04-21T03:17:20.131Z,4.45
2017-04-21T03:18:30.396Z,4.45
2017-04-21T03:19:42.801Z,4.3
2017-04-21T03:20:53.067Z,4.3
2017-04-21T03:22:03.313Z,4.25
2017-04-21T03:23:13.570Z,4.24
2017-04-21T03:24:23.831Z,4.21
2017-04-21T03:25:33.818Z,4.3
2017-04-21T03:26:44.091Z,4.22
2017-04-21T03:27:54.343Z,4.21
2017-04-21T03:29:04.599Z,4.22
2017-04-21T03:30:14.858Z,4.1
2017-04-21T03:31:29.421Z,4.18
2017-04-21T03:32:39.742Z,4.2
2017-04-21T03:33:50.287Z,4.12
2017-04-21T03:35:00.804Z,4.13
2017-04-21T03:36:11.056Z,4.1
2017-04-21T03:37:21.044Z,4.09
2017-04-21T03:38:30.984Z,4.07
2017-04-21T03:39:41.232Z,4.07
2017-04-21T03:40:51.490Z,4.04
2017-04-21T03:42:01.746Z,4.02
2017-04-21T03:43:12.048Z,4.03
2017-04-21T03:44:22.306Z,3.96
2017-04-21T03:45:32.252Z,4.02
2017-04-21T03:46:42.505Z,4.02
2017-04-21T03:47:52.782Z,4.04
2017-04-21T03:49:03.097Z,4.06
2017-04-21T03:50:13.354Z,4.06
2017-04-21T03:51:23.292Z,4.1
2017-04-21T03:52:33.550Z,4.1
2017-04-21T03:53:43.804Z,4.06
2017-04-21T03:54:54.104Z,4.14
2017-04-21T03:56:04.378Z,4.24
2017-04-21T03:57:14.326Z,4.27
2017-04-21T03:58:24.580Z,4.28
2017-04-21T03:59:34.847Z,4.3
2017-04-21T04:00:44.843Z,4.3
2017-04-21T04:01:55.097Z,4.31
2017-04-21T04:03:05.355Z,4.34
2017-04-21T04:04:15.304Z,4.39
2017-04-21T04:05:25.578Z,4.39
2017-04-21T04:06:35.883Z,4.39
2017-04-21T04:07:46.140Z,4.34
2017-04-21T04:08:56.404Z,4.3
2017-04-21T04:10:06.574Z,4.32
2017-04-21T04:11:16.239Z,4.36
2017-04-21T04:12:26.547Z,4.43
2017-04-21T04:13:36.803Z,4.3
2017-04-21T04:14:46.439Z,4.36
2017-04-21T04:15:56.702Z,4.3
2017-04-21T04:17:06.959Z,4.3
2017-04-21T04:18:16.955Z,4.3
2017-04-21T04:19:27.214Z,4.38
2017-04-21T04:20:37.167Z,4.28
2017-04-21T04:21:47.421Z,4.27
2017-04-21T04:22:57.685Z,4.28
2017-04-21T04:24:08.139Z,4.3
2017-04-21T04:25:18.401Z,4.27
2017-04-21T04:26:28.337Z,4.25
2017-04-21T04:27:38.588Z,4.39
2017-04-21T04:28:48.847Z,4.3
2017-04-21T04:29:59.150Z,4.34
2017-04-21T04:31:09.100Z,4.4
2017-04-21T04:32:19.353Z,4.36
2017-04-21T04:33:29.613Z,4.46
2017-04-21T04:34:39.874Z,4.46
2017-04-21T04:35:49.872Z,4.39
2017-04-21T04:37:00.133Z,4.42
2017-04-21T04:38:10.388Z,4.49
2017-04-21T04:39:20.332Z,4.52
2017-04-21T04:40:30.588Z,4.49
2017-04-21T04:41:40.895Z,4.6
2017-04-21T04:42:51.291Z,4.53
2017-04-21T04:44:01.563Z,4.64
2017-04-21T04:45:11.984Z,4.68
2017-04-21T04:46:22.233Z,4.66
2017-04-21T04:47:32.540Z,4.64
2017-04-21T04:48:42.801Z,4.7
2017-04-21T04:49:53.059Z,4.7
2017-04-21T04:51:03.329Z,4.71
2017-04-21T04:52:13.586Z,4.79
2017-04-21T04:53:23.892Z,4.82
2017-04-21T04:54:34.158Z,4.87
2017-04-21T04:55:44.423Z,4.86
2017-04-21T04:56:54.674Z,4.94
2017-04-21T04:58:04.928Z,4.95
2017-04-21T04:59:15.237Z,5
2017-04-21T05:00:25.506Z,5
2017-04-21T05:01:35.756Z,5.01
2017-04-21T05:02:45.697Z,5.12
2017-04-21T05:03:55.943Z,5.18
2017-04-21T05:05:06.258Z,5.19
2017-04-21T05:06:16.524Z,5.22
2017-04-21T05:07:26.480Z,5.2
2017-04-21T05:08:36.738Z,5.25
2017-04-21T05:09:46.990Z,5.23
2017-04-21T05:10:57.298Z,5.25
2017-04-21T05:12:07.239Z,5.37
2017-04-21T05:13:17.498Z,5.55
2017-04-21T05:14:27.120Z,5.61
2017-04-21T05:15:37.378Z,5.65
2017-04-21T05:16:47.369Z,5.84
2017-04-21T05:17:57.623Z,5.84
2017-04-21T05:19:07.916Z,5.94
2017-04-21T05:20:18.277Z,5.92
2017-04-21T05:21:28.535Z,6.12
2017-04-21T05:22:38.846Z,6.13
2017-04-21T05:23:49.102Z,6.2
2017-04-21T05:24:59.365Z,6.17
2017-04-21T05:26:09.341Z,6.2
2017-04-21T05:27:19.598Z,6.35
2017-04-21T05:28:29.925Z,6.44
2017-04-21T05:29:40.200Z,6.43
2017-04-21T05:30:50.457Z,6.54
2017-04-21T05:32:00.721Z,6.5
2017-04-21T05:33:10.973Z,6.62
2017-04-21T05:34:21.285Z,6.56
2017-04-21T05:35:31.553Z,6.62
2017-04-21T05:36:41.499Z,6.72
2017-04-21T05:37:51.760Z,6.78
2017-04-21T05:39:02.033Z,6.75
2017-04-21T05:40:12.340Z,6.77
2017-04-21T05:41:22.592Z,6.8
2017-04-21T05:42:32.852Z,6.85
2017-04-21T05:43:43.112Z,6.85
2017-04-21T05:44:53.369Z,6.86
2017-04-21T05:46:03.678Z,6.9
2017-04-21T05:47:13.619Z,6.93
2017-04-21T05:48:23.574Z,7.01
2017-04-21T05:49:33.835Z,7.04
2017-04-21T05:50:43.782Z,7.08
2017-04-21T05:51:54.090Z,7.07
2017-04-21T05:53:04.342Z,7.08
2017-04-21T05:54:14.597Z,7.11
2017-04-21T05:55:25.189Z,7.11
2017-04-21T05:56:35.440Z,7.18
2017-04-21T05:57:45.753Z,7.21
2017-04-21T05:58:56.104Z,7.21
2017-04-21T06:00:06.354Z,7.28
2017-04-21T06:01:16.614Z,7.23
2017-04-21T06:02:26.873Z,7.28
2017-04-21T06:03:37.229Z,7.32
2017-04-21T06:04:47.172Z,7.37
2017-04-21T06:05:57.118Z,7.43
2017-04-21T06:07:07.403Z,7.41
2017-04-21T06:08:17.667Z,7.39
2017-04-21T06:09:27.969Z,7.5
2017-04-21T06:10:38.230Z,7.5
2017-04-21T06:11:48.205Z,7.55
2017-04-21T06:12:58.469Z,7.61
2017-04-21T06:14:08.423Z,7.53
2017-04-21T06:15:18.424Z,7.56
2017-04-21T06:16:28.682Z,7.66
2017-04-21T06:17:38.942Z,7.61
2017-04-21T06:18:49.197Z,7.67
2017-04-21T06:19:59.456Z,7.77
2017-04-21T06:21:11.452Z,7.78
2017-04-21T06:22:21.707Z,7.83
2017-04-21T06:23:31.969Z,7.8
2017-04-21T06:24:42.233Z,7.84
2017-04-21T06:25:52.173Z,7.88
2017-04-21T06:27:02.483Z,7.91
2017-04-21T06:28:12.742Z,7.98
2017-04-21T06:29:23.013Z,8.01
2017-04-21T06:30:33.283Z,7.96
2017-04-21T06:31:43.650Z,8.06
2017-04-21T06:32:54.080Z,8.05
2017-04-21T06:34:04.335Z,7.99
2017-04-21T06:35:14.607Z,8.02
2017-04-21T06:36:24.864Z,8.08
2017-04-21T06:37:35.120Z,8.09
2017-04-21T06:38:45.142Z,8.08
2017-04-21T06:39:55.400Z,8.18
2017-04-21T06:41:05.666Z,8.17
2017-04-21T06:42:15.915Z,8.18
2017-04-21T06:43:26.175Z,8.26
2017-04-21T06:44:36.495Z,8.2
2017-04-21T06:45:46.747Z,8.24
2017-04-21T06:46:57.021Z,8.2
2017-04-21T06:48:07.283Z,8.2
2017-04-21T06:49:17.553Z,8.31
2017-04-21T06:50:28.065Z,8.28
2017-04-21T06:51:38.330Z,8.2
2017-04-21T06:52:48.597Z,8.26
2017-04-21T06:53:58.863Z,8.26
2017-04-21T06:55:09.119Z,8.27
2017-04-21T06:56:19.430Z,8.26
2017-04-21T06:57:29.686Z,8.26
2017-04-21T06:58:39.956Z,8.38
2017-04-21T06:59:49.908Z,8.35
2017-04-21T07:01:00.168Z,8.32
2017-04-21T07:02:10.054Z,8.39
2017-04-21T07:03:20.329Z,8.39
2017-04-21T07:04:30.587Z,8.38
2017-04-21T07:05:40.855Z,8.39
2017-04-21T07:06:51.268Z,8.49
2017-04-21T07:08:01.755Z,8.41
2017-04-21T07:09:12.016Z,8.45
2017-04-21T07:10:22.276Z,8.49
2017-04-21T07:11:32.532Z,8.54
2017-04-21T07:12:42.791Z,8.52
2017-04-21T07:13:53.099Z,8.56
2017-04-21T07:15:03.370Z,8.57
2017-04-21T07:16:13.008Z,8.63
2017-04-21T07:17:23.259Z,8.56
2017-04-21T07:18:33.531Z,8.56
2017-04-21T07:19:43.851Z,8.61
2017-04-21T07:20:53.791Z,8.71
2017-04-21T07:22:04.050Z,8.75
2017-04-21T07:23:14.306Z,8.77
2017-04-21T07:24:24.577Z,8.77
2017-04-21T07:25:34.924Z,8.82
2017-04-21T07:26:45.186Z,8.74
2017-04-21T07:27:55.137Z,8.78
2017-04-21T07:29:05.406Z,8.72
2017-04-21T07:30:15.701Z,8.75
2017-04-21T07:31:26.010Z,8.79
2017-04-21T07:32:35.957Z,8.84
2017-04-21T07:33:46.217Z,8.77
2017-04-21T07:34:56.160Z,8.78
2017-04-21T07:36:06.845Z,8.82
2017-04-21T07:37:17.177Z,8.77
2017-04-21T07:38:27.436Z,8.75
2017-04-21T07:39:37.882Z,8.69
2017-04-21T07:40:48.270Z,8.79
2017-04-21T07:41:58.532Z,8.82
2017-04-21T07:43:08.542Z,8.84
2017-04-21T07:44:18.804Z,8.86
2017-04-21T07:45:29.069Z,8.81
2017-04-21T07:46:39.325Z,8.81
2017-04-21T07:47:49.276Z,8.79
2017-04-21T07:48:59.584Z,8.78
2017-04-21T07:50:09.846Z,8.82
2017-04-21T07:51:20.115Z,8.86
2017-04-21T07:52:30.368Z,8.96
2017-04-21T07:53:40.631Z,8.79
2017-04-21T07:54:50.311Z,8.93
2017-04-21T07:56:00.577Z,8.97
2017-04-21T07:57:10.890Z,8.99
2017-04-21T07:58:20.839Z,8.96
2017-04-21T07:59:31.095Z,9.03
2017-04-21T08:01:22.135Z,9
2017-04-21T08:02:31.772Z,9
2017-04-21T08:03:41.722Z,8.93
2017-04-21T08:04:51.984Z,9
2017-04-21T08:06:02.243Z,9.03
2017-04-21T08:07:12.186Z,9.16
2017-04-21T08:08:22.135Z,9.16
2017-04-21T08:09:32.076Z,9.15
2017-04-21T08:10:41.713Z,9.18
2017-04-21T08:11:51.970Z,9.21
2017-04-21T08:13:01.281Z,9.27
2017-04-21T08:14:11.536Z,9.34
2017-04-21T08:15:21.793Z,9.29
2017-04-21T08:16:31.743Z,9.27
2017-04-21T08:17:42.007Z,9.37
2017-04-21T08:18:51.952Z,9.33
2017-04-21T08:20:01.909Z,9.37
2017-04-21T08:21:11.222Z,9.37
2017-04-21T08:22:21.475Z,9.48
2017-04-21T08:23:31.726Z,9.49
2017-04-21T08:24:41.673Z,9.52
2017-04-21T08:25:51.931Z,9.51
2017-04-21T08:27:01.903Z,9.63
2017-04-21T08:28:12.159Z,9.59
2017-04-21T08:29:22.420Z,9.54
2017-04-21T08:30:32.685Z,9.66
2017-04-21T08:31:42.688Z,9.58
2017-04-21T08:32:52.635Z,9.52
2017-04-21T08:34:02.887Z,9.56
2017-04-21T08:35:12.586Z,9.69
2017-04-21T08:36:22.544Z,9.63
2017-04-21T08:37:32.800Z,9.64
2017-04-21T08:38:42.757Z,9.54
2017-04-21T08:39:53.014Z,9.66
2017-04-21T08:41:03.279Z,9.73
2017-04-21T08:42:13.538Z,9.81
2017-04-21T08:43:23.493Z,9.76
2017-04-21T08:44:33.752Z,9.81
2017-04-21T08:45:44.009Z,9.82
2017-04-21T08:46:54.272Z,9.8
2017-04-21T08:48:04.544Z,9.77
2017-04-21T08:49:14.496Z,9.72
2017-04-21T08:50:24.452Z,9.66
2017-04-21T08:51:34.710Z,9.64
2017-04-21T08:52:44.973Z,9.58
2017-04-21T08:53:55.230Z,9.62
2017-04-21T08:55:05.174Z,9.59
2017-04-21T08:56:15.445Z,9.64
2017-04-21T08:57:25.391Z,9.63
2017-04-21T08:58:35.652Z,9.81
2017-04-21T08:59:45.601Z,9.81
2017-04-21T09:00:55.858Z,9.85
2017-04-21T09:02:06.109Z,9.9
2017-04-21T09:03:16.056Z,9.92
2017-04-21T09:04:26.320Z,9.91
2017-04-21T09:05:36.276Z,9.88
2017-04-21T09:06:46.532Z,9.82
2017-04-21T09:07:56.482Z,9.81
2017-04-21T09:09:06.744Z,9.87
2017-04-21T09:10:17.006Z,9.9
2017-04-21T09:11:27.267Z,9.95
2017-04-21T09:12:37.210Z,9.91
2017-04-21T09:13:47.167Z,10.03
2017-04-21T09:14:57.113Z,9.91
2017-04-21T09:16:07.382Z,9.77
2017-04-21T09:17:17.716Z,9.62
2017-04-21T09:18:28.096Z,9.77
2017-04-21T09:19:38.458Z,9.81
2017-04-21T09:20:48.846Z,9.8
2017-04-21T09:21:58.805Z,9.97
2017-04-21T09:23:08.127Z,9.88
2017-04-21T09:24:18.087Z,9.84
2017-04-21T09:25:27.719Z,9.91
2017-04-21T09:26:37.981Z,9.97
2017-04-21T09:27:48.234Z,9.92
2017-04-21T09:28:58.502Z,10.03
2017-04-21T09:30:08.768Z,10.1
2017-04-21T09:31:49.909Z,9.95
2017-04-21T09:35:39.372Z,9.94
2017-04-21T09:37:27.892Z,9.82
2017-04-21T09:38:37.843Z,9.99
2017-04-21T09:39:48.103Z,9.99
2017-04-21T09:40:58.368Z,9.92
2017-04-21T09:42:08.314Z,10
2017-04-21T09:44:10.089Z,9.94
2017-04-21T09:45:21.274Z,9.95
2017-04-21T09:46:31.538Z,9.87
2017-04-21T09:47:41.807Z,9.91
2017-04-21T09:48:51.759Z,9.9
2017-04-21T09:50:02.020Z,9.91
2017-04-21T09:55:26.541Z,9.92
2017-04-21T10:06:35.331Z,10.21
2017-04-21T10:09:40.898Z,10.27
2017-04-21T10:10:51.154Z,10.3
2017-04-21T10:12:01.412Z,10.33
2017-04-21T10:13:11.683Z,10.31
2017-04-21T10:14:21.947Z,10.21
2017-04-21T10:15:32.206Z,10.23
2017-04-21T10:16:42.467Z,10.17
2017-04-21T10:17:52.419Z,10.07
2017-04-21T10:19:02.679Z,9.95
2017-04-21T10:20:12.939Z,10.05
2017-04-21T10:21:22.884Z,10.2
2017-04-21T10:22:33.141Z,10.07
2017-04-21T10:23:43.401Z,10.07
2017-04-21T10:24:53.663Z,10.17
2017-04-21T10:26:03.918Z,10.15
2017-04-21T10:27:14.171Z,10.12
2017-04-21T10:28:24.117Z,10.13
2017-04-21T10:29:34.380Z,10.12
2017-04-21T10:30:44.647Z,10.12
2017-04-21T10:31:54.904Z,10.12
2017-04-21T10:33:05.166Z,10.27
2017-04-21T10:34:15.174Z,10.28
2017-04-21T10:35:25.585Z,10.27
2017-04-21T10:36:36.002Z,10.39
2017-04-21T10:37:46.259Z,10.42
2017-04-21T10:38:56.516Z,10.49
2017-04-21T10:40:06.769Z,10.43
2017-04-21T10:41:17.020Z,10.45
2017-04-21T10:42:26.969Z,10.41
2017-04-21T10:43:37.223Z,10.33
2017-04-21T10:44:47.485Z,10.34
2017-04-21T10:45:57.764Z,10.25
2017-04-21T10:47:08.022Z,10.2
2017-04-21T10:48:18.279Z,10.24
2017-04-21T10:49:28.540Z,10.21
2017-04-21T10:50:38.806Z,10.21
2017-04-21T10:51:49.084Z,10.33
2017-04-21T10:52:59.348Z,10.25
2017-04-21T10:54:09.626Z,10.21
2017-04-21T10:55:19.886Z,10.21
2017-04-21T10:56:30.139Z,10.21
2017-04-21T10:57:40.394Z,10.34
2017-04-21T10:58:50.661Z,10.3
2017-04-21T11:00:00.916Z,10.15
2017-04-21T11:01:11.174Z,10.2
2017-04-21T11:02:21.605Z,10.15
2017-04-21T11:03:32.055Z,10.23
2017-04-21T11:04:42.615Z,10.21
2017-04-21T11:05:52.556Z,10.38
2017-04-21T11:07:02.816Z,10.34
2017-04-21T11:08:12.757Z,10.38
2017-04-21T11:09:23.015Z,10.39
2017-04-21T11:10:32.958Z,10.33
2017-04-21T11:11:43.213Z,10.34
2017-04-21T11:12:53.499Z,10.27
2017-04-21T11:14:03.757Z,10.45
2017-04-21T11:15:14.013Z,10.41
2017-04-21T11:16:23.977Z,10.59
2017-04-21T11:17:34.235Z,10.86
2017-04-21T11:18:44.504Z,11
2017-04-21T11:19:54.754Z,11.27
2017-04-21T11:21:05.011Z,11.52
2017-04-21T11:22:15.270Z,11.63
2017-04-21T11:23:25.528Z,12.05
2017-04-21T11:24:35.196Z,12.36
2017-04-21T11:25:45.465Z,12.48
2017-04-21T11:26:55.727Z,12.68
2017-04-21T11:28:05.985Z,12.93
2017-04-21T11:29:16.254Z,12.95
2017-04-21T11:30:26.527Z,13.02
2017-04-21T11:31:36.481Z,13.33
2017-04-21T11:32:46.741Z,13.28
2017-04-21T11:33:57.008Z,13.54
2017-04-21T11:35:07.274Z,13.67
2017-04-21T11:36:17.660Z,13.23
2017-04-21T11:37:27.922Z,13.46
2017-04-21T11:38:38.184Z,13.54
2017-04-21T11:39:48.461Z,13.67
2017-04-21T11:40:58.723Z,13.95
2017-04-21T11:42:08.987Z,14.04
2017-04-21T11:43:19.256Z,13.95
2017-04-21T11:44:29.518Z,13.87
2017-04-21T11:45:39.791Z,13.8
2017-04-21T11:46:49.746Z,13.8
2017-04-21T11:48:00.019Z,14.01
2017-04-21T11:49:10.287Z,13.89
2017-04-21T11:50:20.556Z,13.8
2017-04-21T11:51:30.515Z,13.85
2017-04-21T11:52:40.470Z,13.85
2017-04-21T11:53:50.743Z,13.82
2017-04-21T11:55:00.700Z,14.11
2017-04-21T11:56:10.985Z,14.22
2017-04-21T11:57:21.264Z,14.13
2017-04-21T11:58:31.541Z,14.03
2017-04-21T11:59:41.810Z,13.5
2017-04-21T12:00:52.081Z,13.2
2017-04-21T12:02:02.043Z,13.03
2017-04-21T12:03:11.993Z,12.78
2017-04-21T12:04:22.474Z,12.94
2017-04-21T12:05:33.044Z,13.33
2017-04-21T12:06:43.331Z,13.46
2017-04-21T12:07:53.604Z,13.33
2017-04-21T12:09:03.876Z,13.61
2017-04-21T12:10:14.152Z,13.83
2017-04-21T12:11:24.475Z,13.91
2017-04-21T12:12:34.751Z,14.05
2017-04-21T12:13:45.027Z,13.64
2017-04-21T12:14:55.296Z,13.28
2017-04-21T12:16:05.575Z,13.23
2017-04-21T12:17:15.847Z,13.65
2017-04-21T12:18:26.119Z,13.54
2017-04-21T12:19:36.389Z,13.45
2017-04-21T12:20:46.685Z,13.68
2017-04-21T12:21:56.956Z,12.94
2017-04-21T12:23:07.237Z,12.39
2017-04-21T12:24:17.508Z,11.88
2017-04-21T12:25:27.776Z,11.27
2017-04-21T12:26:38.038Z,11.77
2017-04-21T12:27:48.315Z,11.89
2017-04-21T12:28:58.593Z,12.07
2017-04-21T12:30:08.548Z,12.4
2017-04-21T12:31:18.511Z,12.93
2017-04-21T12:32:28.517Z,12.95
2017-04-21T12:33:38.792Z,12.94
2017-04-21T12:34:49.064Z,13.01
2017-04-21T12:35:59.335Z,13.05
2017-04-21T12:37:09.638Z,13.46
2017-04-21T12:38:19.966Z,13.62
2017-04-21T12:39:29.934Z,14.08
2017-04-21T12:40:40.207Z,14.38
2017-04-21T12:41:50.172Z,14.22
2017-04-21T12:43:00.130Z,14.03
2017-04-21T12:44:10.401Z,14.25
2017-04-21T12:45:20.362Z,14.63
2017-04-21T12:46:30.313Z,14.77
2017-04-21T12:47:40.585Z,14.33
2017-04-21T12:48:50.861Z,14.08
2017-04-21T12:50:01.171Z,13.82
2017-04-21T12:51:11.447Z,13.62
2017-04-21T12:52:21.714Z,13.4
2017-04-21T12:53:31.986Z,13.54
2017-04-21T12:54:42.271Z,13.75
2017-04-21T12:55:52.541Z,14.31
2017-04-21T12:57:02.819Z,14.11
2017-04-21T12:58:13.097Z,13.86
2017-04-21T12:59:23.048Z,13.98
2017-04-21T13:00:33.005Z,13.79
2017-04-21T13:01:43.281Z,14.37
2017-04-21T13:02:53.555Z,14.12
2017-04-21T13:04:03.823Z,13.86
2017-04-21T13:05:14.093Z,13.76
2017-04-21T13:06:24.359Z,14.44
2017-04-21T13:07:34.648Z,14.13
2017-04-21T13:08:45.198Z,13.24
2017-04-21T13:09:55.473Z,13.13
2017-04-21T13:11:05.760Z,12.76
2017-04-21T13:12:16.078Z,12.17
2017-04-21T13:13:26.355Z,11.65
2017-04-21T13:14:36.635Z,11.35
2017-04-21T13:15:46.903Z,11.18
2017-04-21T13:16:56.860Z,11.02
2017-04-21T13:18:07.131Z,10.59
2017-04-21T13:19:17.090Z,10.28
2017-04-21T13:20:27.058Z,9.92
2017-04-21T13:21:37.319Z,9.63
2017-04-21T13:22:47.585Z,9.49
2017-04-21T13:23:57.861Z,9.52
2017-04-21T13:25:08.129Z,9.31
2017-04-21T13:26:18.076Z,9.31
2017-04-21T13:27:28.343Z,9.13
2017-04-21T13:28:38.294Z,9.16
2017-04-21T13:29:48.246Z,9.3
2017-04-21T13:30:58.510Z,9.18
2017-04-21T13:32:08.772Z,9.27
2017-04-21T13:33:18.729Z,9.21
2017-04-21T13:34:28.685Z,9.18
2017-04-21T13:35:38.943Z,9.19
2017-04-21T13:36:48.889Z,9.09
2017-04-21T13:37:59.150Z,8.9
2017-04-21T13:39:09.413Z,8.78
2017-04-21T13:40:19.668Z,8.93
2017-04-21T13:41:29.925Z,9.42
2017-04-21T13:42:40.195Z,9.94
2017-04-21T13:43:50.141Z,10.12
2017-04-21T13:45:00.399Z,10.27
2017-04-21T13:46:10.663Z,10.34
2017-04-21T13:47:20.613Z,10.34
2017-04-21T13:48:31.019Z,10.3
2017-04-21T13:49:41.640Z,10.36
2017-04-21T13:50:52.131Z,10.59
2017-04-21T13:52:02.398Z,10.46
2017-04-21T13:53:12.813Z,10.86
2017-04-21T13:54:23.081Z,11.31
2017-04-21T13:55:33.353Z,11.48
2017-04-21T13:56:43.619Z,11.41
2017-04-21T13:57:53.881Z,11.05
2017-04-21T13:59:04.153Z,10.72
2017-04-21T14:00:14.415Z,10.61
2017-04-21T14:01:24.681Z,10.28
2017-04-21T14:02:34.947Z,10
2017-04-21T14:03:44.904Z,9.77
2017-04-21T14:04:55.187Z,9.64
2017-04-21T14:06:05.459Z,9.56
2017-04-21T14:07:15.405Z,9.48
2017-04-21T14:08:25.707Z,9.4
2017-04-21T14:09:35.987Z,9.22
2017-04-21T14:10:46.257Z,9.12
2017-04-21T14:11:56.518Z,9.13
2017-04-21T14:13:06.781Z,9.03
2017-04-21T14:14:17.042Z,8.93
2017-04-21T14:15:27.311Z,8.81
2017-04-21T14:16:37.254Z,8.84
2017-04-21T14:17:47.198Z,8.75
2017-04-21T14:18:57.145Z,8.71
2017-04-21T14:20:07.091Z,8.68
2017-04-21T14:21:17.048Z,8.66
2017-04-21T14:22:27.013Z,8.69
2017-04-21T14:23:37.265Z,8.46
2017-04-21T14:24:47.549Z,8.36
2017-04-21T14:25:57.807Z,8.31
2017-04-21T14:27:08.067Z,8.24
2017-04-21T14:28:18.330Z,8.28
2017-04-21T14:29:28.298Z,8.27
2017-04-21T14:30:38.557Z,8.2
2017-04-21T14:31:48.504Z,8.13
2017-04-21T14:32:58.762Z,8.21
2017-04-21T14:34:09.025Z,8.21
2017-04-21T14:35:18.964Z,8.45
2017-04-21T14:36:29.224Z,8.71
2017-04-21T14:37:39.484Z,8.99
2017-04-21T14:38:49.435Z,9.15
2017-04-21T14:39:59.696Z,9.31
2017-04-21T14:41:09.637Z,9.37
2017-04-21T14:42:19.585Z,9.45
2017-04-21T14:43:29.854Z,9.33
2017-04-21T14:44:40.136Z,9.22
2017-04-21T14:45:50.085Z,9.37
2017-04-21T14:47:00.347Z,10.21
2017-04-21T14:48:10.612Z,10.75
2017-04-21T14:49:20.557Z,11.13
2017-04-21T14:50:30.816Z,11.78
2017-04-21T14:51:41.072Z,12.63
2017-04-21T14:52:51.025Z,13.31
2017-04-21T14:54:01.287Z,13.62
2017-04-21T14:55:11.550Z,14.13
2017-04-21T14:56:21.811Z,14.52
2017-04-21T14:57:32.087Z,14.82
2017-04-21T14:58:42.052Z,15.35
2017-04-21T14:59:52.324Z,15.33
2017-04-21T15:01:02.591Z,15.27
2017-04-21T15:02:12.554Z,15.9
2017-04-21T15:03:22.827Z,16.34
2017-04-21T15:04:32.785Z,16.41
2017-04-21T15:05:43.059Z,16.02
2017-04-21T15:06:53.323Z,15.91
2017-04-21T15:08:03.594Z,15.59
2017-04-21T15:09:13.871Z,15.85
2017-04-21T15:10:24.140Z,15.51
2017-04-21T15:11:34.101Z,15.63
2017-04-21T15:12:44.364Z,15.94
2017-04-21T15:13:54.635Z,16.02
2017-04-21T15:15:04.586Z,15.75
2017-04-21T15:16:14.856Z,16.05
2017-04-21T15:17:25.129Z,15.8
2017-04-21T15:18:35.089Z,15.35
2017-04-21T15:19:45.125Z,14.67
2017-04-21T15:20:55.510Z,13.58
2017-04-21T15:22:06.157Z,13.09
2017-04-21T15:23:16.571Z,12.44
2017-04-21T15:24:26.215Z,12.07
2017-04-21T15:25:36.488Z,11.62
2017-04-21T15:26:46.753Z,11.12
2017-04-21T15:27:56.707Z,10.71
2017-04-21T15:29:06.972Z,10.53
2017-04-21T15:30:17.247Z,10.15
2017-04-21T15:31:27.510Z,9.91
2017-04-21T15:32:37.773Z,9.82
2017-04-21T15:33:47.732Z,9.95
2017-04-21T15:34:57.686Z,9.56
2017-04-21T15:36:07.953Z,9.3
2017-04-21T15:37:18.220Z,9.3
2017-04-21T15:38:28.175Z,9.37
2017-04-21T15:39:38.444Z,9.29
2017-04-21T15:40:48.712Z,9.12
2017-04-21T15:41:58.979Z,8.96
2017-04-21T15:43:09.248Z,9.08
2017-04-21T15:44:19.200Z,9.21
2017-04-21T15:45:29.475Z,9.16
2017-04-21T15:46:39.734Z,9.26
2017-04-21T15:47:50.000Z,9.3
2017-04-21T15:49:00.258Z,9.49
2017-04-21T15:50:10.204Z,9.39
2017-04-21T15:51:20.152Z,9.39